sensor_id;sensor_type;location;lat;lon;timestamp;P1;P2;P0
14880;PMS7003;7533;51.278;12.588;2022-12-29T00:04:25;1.00;1.00;0.75
14880;PMS7003;7533;51.278;12.588;2022-12-29T00:09:28;0.00;0.00;0.00
14880;PMS7003;7533;51.278;12.588;2022-12-29T00:14:32;1.00;1.00;0.75
14880;PMS7003;7533;51.278;12.588;2022-12-29T00:19:49;0.50;0.00;0.00
14880;PMS7003;7533;51.278;12.588;2022-12-29T00:25:10;1.25;0.00;0.00
14880;PMS7003;7533;51.278;12.588;2022-12-29T00:30:32;0.00;0.00;0.00
14880;PMS7003;7533;51.278;12.588;2022-12-29T00:35:53;1.75;1.75;0.25
14880;PMS7003;7533;51.278;12.588;2022-12-29T00:40:58;1.00;1.00;0.00
14880;PMS7003;7533;51.278;12.588;2022-12-29T00:46:20;0.00;0.00;0.00
14880;PMS7003;7533;51.278;12.588;2022-12-29T00:51:23;1.00;1.00;0.00
14880;PMS7003;7533;51.278;12.588;2022-12-29T00:56:26;0.00;0.00;0.00
14880;PMS7003;7533;51.278;12.588;2022-12-29T01:01:30;0.75;0.75;0.00
14880;PMS7003;7533;51.278;12.588;2022-12-29T01:06:34;0.00;0.00;0.00
14880;PMS7003;7533;51.278;12.588;2022-12-29T01:11:38;0.25;0.00;0.00
14880;PMS7003;7533;51.278;12.588;2022-12-29T01:16:43;0.50;0.50;0.00
14880;PMS7003;7533;51.278;12.588;2022-12-29T01:21:46;0.00;0.00;0.00
14880;PMS7003;7533;51.278;12.588;2022-12-29T01:26:49;1.25;1.00;0.00
14880;PMS7003;7533;51.278;12.588;2022-12-29T01:31:53;0.00;0.00;0.00
14880;PMS7003;7533;51.278;12.588;2022-12-29T01:36:56;0.25;0.25;0.00
14880;PMS7003;7533;51.278;12.588;2022-12-29T01:41:59;1.00;1.00;0.00
14880;PMS7003;7533;51.278;12.588;2022-12-29T01:47:03;1.00;1.00;0.00
14880;PMS7003;7533;51.278;12.588;2022-12-29T01:52:06;0.00;0.00;0.00
14880;PMS7003;7533;51.278;12.588;2022-12-29T01:57:10;0.00;0.00;0.00
14880;PMS7003;7533;51.278;12.588;2022-12-29T02:02:20;0.00;0.00;0.00
14880;PMS7003;7533;51.278;12.588;2022-12-29T02:07:23;1.00;1.00;0.00
14880;PMS7003;7533;51.278;12.588;2022-12-29T02:12:29;0.00;0.00;0.00
14880;PMS7003;7533;51.278;12.588;2022-12-29T02:17:38;1.00;1.00;0.00
14880;PMS7003;7533;51.278;12.588;2022-12-29T02:22:52;0.25;0.25;0.00
14880;PMS7003;7533;51.278;12.588;2022-12-29T02:28:33;0.00;0.00;0.00
14880;PMS7003;7533;51.278;12.588;2022-12-29T02:33:57;1.00;1.00;0.00
14880;PMS7003;7533;51.278;12.588;2022-12-29T02:39:12;0.00;0.00;0.00
14880;PMS7003;7533;51.278;12.588;2022-12-29T02:44:24;0.00;0.00;0.00
14880;PMS7003;7533;51.278;12.588;2022-12-29T02:49:33;1.50;1.00;0.00
14880;PMS7003;7533;51.278;12.588;2022-12-29T02:54:39;0.00;0.00;0.00
14880;PMS7003;7533;51.278;12.588;2022-12-29T02:59:47;0.25;0.25;0.00
14880;PMS7003;7533;51.278;12.588;2022-12-29T03:04:58;0.00;0.00;0.00
14880;PMS7003;7533;51.278;12.588;2022-12-29T03:10:25;0.00;0.00;0.00
14880;PMS7003;7533;51.278;12.588;2022-12-29T03:15:39;0.75;0.25;0.00
14880;PMS7003;7533;51.278;12.588;2022-12-29T03:21:07;0.50;0.50;0.00
14880;PMS7003;7533;51.278;12.588;2022-12-29T03:26:16;0.00;0.00;0.00
14880;PMS7003;7533;51.278;12.588;2022-12-29T03:31:23;0.25;0.00;0.00
14880;PMS7003;7533;51.278;12.588;2022-12-29T03:36:30;0.75;0.75;0.00
14880;PMS7003;7533;51.278;12.588;2022-12-29T03:41:42;0.00;0.00;0.00
14880;PMS7003;7533;51.278;12.588;2022-12-29T03:46:47;0.00;0.00;0.00
14880;PMS7003;7533;51.278;12.588;2022-12-29T03:51:52;0.00;0.00;0.00
14880;PMS7003;7533;51.278;12.588;2022-12-29T03:56:56;1.00;0.50;0.00
14880;PMS7003;7533;51.278;12.588;2022-12-29T04:02:11;0.00;0.00;0.00
14880;PMS7003;7533;51.278;12.588;2022-12-29T04:07:16;0.00;0.00;0.00
14880;PMS7003;7533;51.278;12.588;2022-12-29T04:12:19;0.00;0.00;0.00
14880;PMS7003;7533;51.278;12.588;2022-12-29T04:17:22;0.50;0.50;0.00
14880;PMS7003;7533;51.278;12.588;2022-12-29T04:22:28;1.50;0.75;0.00
14880;PMS7003;7533;51.278;12.588;2022-12-29T04:27:31;0.00;0.00;0.00
14880;PMS7003;7533;51.278;12.588;2022-12-29T04:33:01;0.00;0.00;0.00
14880;PMS7003;7533;51.278;12.588;2022-12-29T04:38:05;0.25;0.25;0.00
14880;PMS7003;7533;51.278;12.588;2022-12-29T04:43:08;0.00;0.00;0.00
14880;PMS7003;7533;51.278;12.588;2022-12-29T04:48:41;0.00;0.00;0.00
14880;PMS7003;7533;51.278;12.588;2022-12-29T04:54:06;0.00;0.00;0.00
14880;PMS7003;7533;51.278;12.588;2022-12-29T04:59:10;1.00;1.00;0.00
14880;PMS7003;7533;51.278;12.588;2022-12-29T05:04:13;0.00;0.00;0.00
14880;PMS7003;7533;51.278;12.588;2022-12-29T05:09:19;0.00;0.00;0.00
14880;PMS7003;7533;51.278;12.588;2022-12-29T05:14:21;2.00;1.00;0.00
14880;PMS7003;7533;51.278;12.588;2022-12-29T05:19:24;0.00;0.00;0.00
14880;PMS7003;7533;51.278;12.588;2022-12-29T05:24:29;0.00;0.00;0.00
14880;PMS7003;7533;51.278;12.588;2022-12-29T05:29:32;0.00;0.00;0.00
14880;PMS7003;7533;51.278;12.588;2022-12-29T05:34:35;0.00;0.00;0.00
14880;PMS7003;7533;51.278;12.588;2022-12-29T05:39:40;0.75;0.75;0.00
14880;PMS7003;7533;51.278;12.588;2022-12-29T05:44:43;0.00;0.00;0.00
14880;PMS7003;7533;51.278;12.588;2022-12-29T05:49:56;0.00;0.00;0.00
14880;PMS7003;7533;51.278;12.588;2022-12-29T05:55:19;0.00;0.00;0.00
14880;PMS7003;7533;51.278;12.588;2022-12-29T06:00:26;0.00;0.00;0.00
14880;PMS7003;7533;51.278;12.588;2022-12-29T06:05:29;0.00;0.00;0.00
14880;PMS7003;7533;51.278;12.588;2022-12-29T06:10:33;0.50;0.50;0.00
14880;PMS7003;7533;51.278;12.588;2022-12-29T06:15:39;1.00;0.00;0.00
14880;PMS7003;7533;51.278;12.588;2022-12-29T06:20:42;0.00;0.00;0.00
14880;PMS7003;7533;51.278;12.588;2022-12-29T06:25:47;0.00;0.00;0.00
14880;PMS7003;7533;51.278;12.588;2022-12-29T06:30:50;0.50;0.00;0.00
14880;PMS7003;7533;51.278;12.588;2022-12-29T06:35:53;0.00;0.00;0.00
14880;PMS7003;7533;51.278;12.588;2022-12-29T06:40:58;0.00;0.00;0.00
14880;PMS7003;7533;51.278;12.588;2022-12-29T06:46:19;0.00;0.00;0.00
14880;PMS7003;7533;51.278;12.588;2022-12-29T06:51:22;0.00;0.00;0.00
14880;PMS7003;7533;51.278;12.588;2022-12-29T06:56:26;0.00;0.00;0.00
14880;PMS7003;7533;51.278;12.588;2022-12-29T07:01:32;0.00;0.00;0.00
14880;PMS7003;7533;51.278;12.588;2022-12-29T07:06:35;0.00;0.00;0.00
14880;PMS7003;7533;51.278;12.588;2022-12-29T07:11:39;0.00;0.00;0.00
14880;PMS7003;7533;51.278;12.588;2022-12-29T07:16:42;0.00;0.00;0.00
14880;PMS7003;7533;51.278;12.588;2022-12-29T07:21:45;0.25;0.00;0.00
14880;PMS7003;7533;51.278;12.588;2022-12-29T07:26:49;0.00;0.00;0.00
14880;PMS7003;7533;51.278;12.588;2022-12-29T07:31:52;0.00;0.00;0.00
14880;PMS7003;7533;51.278;12.588;2022-12-29T07:36:55;0.00;0.00;0.00
14880;PMS7003;7533;51.278;12.588;2022-12-29T07:41:59;0.00;0.00;0.00
14880;PMS7003;7533;51.278;12.588;2022-12-29T07:47:12;0.00;0.00;0.00
14880;PMS7003;7533;51.278;12.588;2022-12-29T07:52:15;0.00;0.00;0.00
14880;PMS7003;7533;51.278;12.588;2022-12-29T07:57:19;0.25;0.00;0.00
14880;PMS7003;7533;51.278;12.588;2022-12-29T08:02:31;1.00;1.00;0.00
14880;PMS7003;7533;51.278;12.588;2022-12-29T08:07:34;0.00;0.00;0.00
14880;PMS7003;7533;51.278;12.588;2022-12-29T08:12:39;0.50;0.00;0.00
14880;PMS7003;7533;51.278;12.588;2022-12-29T08:17:43;0.75;0.75;0.50
14880;PMS7003;7533;51.278;12.588;2022-12-29T08:22:45;1.00;1.00;0.00
14880;PMS7003;7533;51.278;12.588;2022-12-29T08:27:49;1.75;1.00;0.75
14880;PMS7003;7533;51.278;12.588;2022-12-29T08:32:52;1.50;1.00;0.75
14880;PMS7003;7533;51.278;12.588;2022-12-29T08:37:55;1.25;1.25;0.00
14880;PMS7003;7533;51.278;12.588;2022-12-29T08:42:59;1.00;1.00;0.00
14880;PMS7003;7533;51.278;12.588;2022-12-29T08:48:02;1.00;1.00;0.00
14880;PMS7003;7533;51.278;12.588;2022-12-29T08:53:05;1.00;1.00;1.00
14880;PMS7003;7533;51.278;12.588;2022-12-29T08:58:09;1.00;1.00;0.00
14880;PMS7003;7533;51.278;12.588;2022-12-29T09:03:17;1.00;1.00;0.00
14880;PMS7003;7533;51.278;12.588;2022-12-29T09:08:39;3.00;3.00;1.00
14880;PMS7003;7533;51.278;12.588;2022-12-29T09:13:44;0.00;0.00;0.00
14880;PMS7003;7533;51.278;12.588;2022-12-29T09:18:47;1.50;1.50;0.00
14880;PMS7003;7533;51.278;12.588;2022-12-29T09:23:50;2.25;1.50;0.00
14880;PMS7003;7533;51.278;12.588;2022-12-29T09:28:55;2.00;1.25;0.00
14880;PMS7003;7533;51.278;12.588;2022-12-29T09:33:58;1.00;1.00;0.00
14880;PMS7003;7533;51.278;12.588;2022-12-29T09:39:00;1.00;1.00;0.00
14880;PMS7003;7533;51.278;12.588;2022-12-29T09:44:07;1.25;1.25;0.25
14880;PMS7003;7533;51.278;12.588;2022-12-29T09:49:21;0.50;0.50;0.00
14880;PMS7003;7533;51.278;12.588;2022-12-29T09:54:41;1.00;1.00;0.00
14880;PMS7003;7533;51.278;12.588;2022-12-29T10:00:03;0.75;0.75;0.00
14880;PMS7003;7533;51.278;12.588;2022-12-29T10:05:17;0.75;0.75;0.50
14880;PMS7003;7533;51.278;12.588;2022-12-29T10:10:29;2.00;2.00;0.00
14880;PMS7003;7533;51.278;12.588;2022-12-29T10:15:43;1.00;1.00;0.00
14880;PMS7003;7533;51.278;12.588;2022-12-29T10:20:54;1.00;1.00;0.50
14880;PMS7003;7533;51.278;12.588;2022-12-29T10:26:03;0.25;0.25;0.00
14880;PMS7003;7533;51.278;12.588;2022-12-29T10:31:14;1.00;1.00;0.50
14880;PMS7003;7533;51.278;12.588;2022-12-29T10:36:24;0.00;0.00;0.00
14880;PMS7003;7533;51.278;12.588;2022-12-29T10:41:36;17.00;13.25;8.75
14880;PMS7003;7533;51.278;12.588;2022-12-29T10:46:44;11.75;10.50;5.00
14880;PMS7003;7533;51.278;12.588;2022-12-29T10:51:57;7.00;5.50;3.00
14880;PMS7003;7533;51.278;12.588;2022-12-29T10:57:03;5.75;4.75;2.50
14880;PMS7003;7533;51.278;12.588;2022-12-29T11:02:21;5.00;5.00;1.25
14880;PMS7003;7533;51.278;12.588;2022-12-29T11:07:38;3.00;3.00;2.00
14880;PMS7003;7533;51.278;12.588;2022-12-29T11:12:41;3.00;2.00;1.00
14880;PMS7003;7533;51.278;12.588;2022-12-29T11:17:59;4.75;3.25;2.00
14880;PMS7003;7533;51.278;12.588;2022-12-29T11:23:02;4.50;3.50;1.50
14880;PMS7003;7533;51.278;12.588;2022-12-29T11:28:15;3.50;2.75;1.00
14880;PMS7003;7533;51.278;12.588;2022-12-29T11:33:21;2.00;2.00;1.00
14880;PMS7003;7533;51.278;12.588;2022-12-29T11:38:25;1.75;1.75;0.75
14880;PMS7003;7533;51.278;12.588;2022-12-29T11:43:36;3.00;3.00;1.75
14880;PMS7003;7533;51.278;12.588;2022-12-29T11:48:43;3.50;3.00;1.00
14880;PMS7003;7533;51.278;12.588;2022-12-29T11:53:46;4.00;3.50;1.50
14880;PMS7003;7533;51.278;12.588;2022-12-29T11:58:52;4.00;2.00;1.00
14880;PMS7003;7533;51.278;12.588;2022-12-29T12:03:58;2.75;2.75;1.00
14880;PMS7003;7533;51.278;12.588;2022-12-29T12:09:06;4.00;2.75;1.00
14880;PMS7003;7533;51.278;12.588;2022-12-29T12:14:17;2.00;2.00;0.50
14880;PMS7003;7533;51.278;12.588;2022-12-29T12:19:48;3.75;3.50;2.00
14880;PMS7003;7533;51.278;12.588;2022-12-29T12:24:59;2.75;2.75;1.00
14880;PMS7003;7533;51.278;12.588;2022-12-29T12:30:10;1.75;1.75;1.00
14880;PMS7003;7533;51.278;12.588;2022-12-29T12:35:19;2.00;2.00;0.75
14880;PMS7003;7533;51.278;12.588;2022-12-29T12:40:35;2.00;2.00;1.00
14880;PMS7003;7533;51.278;12.588;2022-12-29T12:45:52;2.00;2.00;1.00
14880;PMS7003;7533;51.278;12.588;2022-12-29T12:51:11;3.00;2.25;0.75
14880;PMS7003;7533;51.278;12.588;2022-12-29T12:56:27;4.00;3.00;1.00
14880;PMS7003;7533;51.278;12.588;2022-12-29T13:01:46;2.00;2.00;1.00
14880;PMS7003;7533;51.278;12.588;2022-12-29T13:07:02;4.00;2.25;0.50
14880;PMS7003;7533;51.278;12.588;2022-12-29T13:12:16;2.25;2.25;1.75
14880;PMS7003;7533;51.278;12.588;2022-12-29T13:17:30;4.50;2.75;1.00
14880;PMS7003;7533;51.278;12.588;2022-12-29T13:22:45;3.75;2.75;1.00
14880;PMS7003;7533;51.278;12.588;2022-12-29T13:27:55;1.50;1.50;0.75
14880;PMS7003;7533;51.278;12.588;2022-12-29T13:33:06;1.00;1.00;0.00
14880;PMS7003;7533;51.278;12.588;2022-12-29T13:38:24;1.00;1.00;1.00
14880;PMS7003;7533;51.278;12.588;2022-12-29T13:43:32;2.00;1.75;0.50
14880;PMS7003;7533;51.278;12.588;2022-12-29T13:48:42;1.00;1.00;0.00
14880;PMS7003;7533;51.278;12.588;2022-12-29T13:53:57;2.25;2.25;1.50
14880;PMS7003;7533;51.278;12.588;2022-12-29T13:59:11;1.75;1.75;1.00
14880;PMS7003;7533;51.278;12.588;2022-12-29T14:04:22;1.75;1.75;1.00
14880;PMS7003;7533;51.278;12.588;2022-12-29T14:14:53;2.00;2.00;1.00
14880;PMS7003;7533;51.278;12.588;2022-12-29T14:19:56;1.75;1.00;0.25
14880;PMS7003;7533;51.278;12.588;2022-12-29T14:25:01;1.50;1.00;0.00
14880;PMS7003;7533;51.278;12.588;2022-12-29T14:30:05;1.50;1.50;0.00
14880;PMS7003;7533;51.278;12.588;2022-12-29T14:35:52;1.00;1.00;0.50
14880;PMS7003;7533;51.278;12.588;2022-12-29T14:46:21;1.75;1.75;0.50
14880;PMS7003;7533;51.278;12.588;2022-12-29T14:51:30;2.50;2.00;0.00
14880;PMS7003;7533;51.278;12.588;2022-12-29T14:56:39;0.50;0.50;0.00
14880;PMS7003;7533;51.278;12.588;2022-12-29T15:01:43;1.25;1.25;0.00
14880;PMS7003;7533;51.278;12.588;2022-12-29T15:06:50;0.00;0.00;0.00
14880;PMS7003;7533;51.278;12.588;2022-12-29T15:11:57;1.00;1.00;0.00
14880;PMS7003;7533;51.278;12.588;2022-12-29T15:17:09;0.67;0.33;0.00
14880;PMS7003;7533;51.278;12.588;2022-12-29T15:22:24;2.25;1.50;0.25
14880;PMS7003;7533;51.278;12.588;2022-12-29T15:27:29;2.25;1.25;0.00
14880;PMS7003;7533;51.278;12.588;2022-12-29T15:32:39;0.00;0.00;0.00
14880;PMS7003;7533;51.278;12.588;2022-12-29T15:37:44;2.50;2.25;1.00
14880;PMS7003;7533;51.278;12.588;2022-12-29T15:42:52;0.75;0.75;0.00
14880;PMS7003;7533;51.278;12.588;2022-12-29T15:48:07;3.00;1.75;0.00
14880;PMS7003;7533;51.278;12.588;2022-12-29T15:53:19;1.25;0.00;0.00
14880;PMS7003;7533;51.278;12.588;2022-12-29T15:58:31;0.75;0.75;0.00
14880;PMS7003;7533;51.278;12.588;2022-12-29T16:03:43;1.50;1.50;0.00
14880;PMS7003;7533;51.278;12.588;2022-12-29T16:08:55;0.25;0.25;0.00
14880;PMS7003;7533;51.278;12.588;2022-12-29T16:14:00;0.00;0.00;0.00
14880;PMS7003;7533;51.278;12.588;2022-12-29T16:19:06;1.00;1.00;0.00
14880;PMS7003;7533;51.278;12.588;2022-12-29T16:24:15;1.00;1.00;0.00
14880;PMS7003;7533;51.278;12.588;2022-12-29T16:29:21;0.50;0.50;0.00
14880;PMS7003;7533;51.278;12.588;2022-12-29T16:34:25;0.75;0.75;0.00
14880;PMS7003;7533;51.278;12.588;2022-12-29T16:39:32;0.00;0.00;0.00
14880;PMS7003;7533;51.278;12.588;2022-12-29T16:44:38;0.00;0.00;0.00
14880;PMS7003;7533;51.278;12.588;2022-12-29T16:49:42;1.00;0.75;0.00
14880;PMS7003;7533;51.278;12.588;2022-12-29T16:54:50;0.25;0.25;0.00
14880;PMS7003;7533;51.278;12.588;2022-12-29T16:59:58;3.00;2.00;0.00
14880;PMS7003;7533;51.278;12.588;2022-12-29T17:05:03;0.00;0.00;0.00
14880;PMS7003;7533;51.278;12.588;2022-12-29T17:10:07;0.25;0.25;0.00
14880;PMS7003;7533;51.278;12.588;2022-12-29T17:15:13;0.75;0.75;0.00
14880;PMS7003;7533;51.278;12.588;2022-12-29T17:20:21;0.75;0.75;0.00
14880;PMS7003;7533;51.278;12.588;2022-12-29T17:25:26;0.00;0.00;0.00
14880;PMS7003;7533;51.278;12.588;2022-12-29T17:30:33;1.50;0.00;0.00
14880;PMS7003;7533;51.278;12.588;2022-12-29T17:35:37;1.00;1.00;0.25
14880;PMS7003;7533;51.278;12.588;2022-12-29T17:40:40;1.00;1.00;0.00
14880;PMS7003;7533;51.278;12.588;2022-12-29T17:45:45;0.00;0.00;0.00
14880;PMS7003;7533;51.278;12.588;2022-12-29T17:50:52;1.00;1.00;0.00
14880;PMS7003;7533;51.278;12.588;2022-12-29T17:55:56;0.00;0.00;0.00
14880;PMS7003;7533;51.278;12.588;2022-12-29T18:01:00;0.25;0.00;0.00
14880;PMS7003;7533;51.278;12.588;2022-12-29T18:06:05;1.00;1.00;0.00
14880;PMS7003;7533;51.278;12.588;2022-12-29T18:11:23;2.00;1.00;0.00
14880;PMS7003;7533;51.278;12.588;2022-12-29T18:16:29;1.00;1.00;0.00
14880;PMS7003;7533;51.278;12.588;2022-12-29T18:21:32;0.00;0.00;0.00
14880;PMS7003;7533;51.278;12.588;2022-12-29T18:26:34;0.00;0.00;0.00
14880;PMS7003;7533;51.278;12.588;2022-12-29T18:31:39;0.25;0.00;0.00
14880;PMS7003;7533;51.278;12.588;2022-12-29T18:36:42;1.00;1.00;0.00
14880;PMS7003;7533;51.278;12.588;2022-12-29T18:41:45;0.00;0.00;0.00
14880;PMS7003;7533;51.278;12.588;2022-12-29T18:46:49;1.00;1.00;0.00
14880;PMS7003;7533;51.278;12.588;2022-12-29T18:51:52;0.00;0.00;0.00
14880;PMS7003;7533;51.278;12.588;2022-12-29T18:56:55;0.00;0.00;0.00
14880;PMS7003;7533;51.278;12.588;2022-12-29T19:02:00;0.25;0.25;0.00
14880;PMS7003;7533;51.278;12.588;2022-12-29T19:07:02;0.75;0.75;0.00
14880;PMS7003;7533;51.278;12.588;2022-12-29T19:12:05;0.00;0.00;0.00
14880;PMS7003;7533;51.278;12.588;2022-12-29T19:17:14;0.00;0.00;0.00
14880;PMS7003;7533;51.278;12.588;2022-12-29T19:22:17;0.00;0.00;0.00
14880;PMS7003;7533;51.278;12.588;2022-12-29T19:27:21;0.00;0.00;0.00
14880;PMS7003;7533;51.278;12.588;2022-12-29T19:32:25;0.00;0.00;0.00
14880;PMS7003;7533;51.278;12.588;2022-12-29T19:37:28;0.00;0.00;0.00
14880;PMS7003;7533;51.278;12.588;2022-12-29T19:42:31;0.00;0.00;0.00
14880;PMS7003;7533;51.278;12.588;2022-12-29T19:47:35;0.75;0.75;0.00
14880;PMS7003;7533;51.278;12.588;2022-12-29T19:52:38;0.25;0.25;0.00
14880;PMS7003;7533;51.278;12.588;2022-12-29T19:57:41;0.00;0.00;0.00
14880;PMS7003;7533;51.278;12.588;2022-12-29T20:02:46;0.00;0.00;0.00
14880;PMS7003;7533;51.278;12.588;2022-12-29T20:07:49;0.00;0.00;0.00
14880;PMS7003;7533;51.278;12.588;2022-12-29T20:12:52;0.00;0.00;0.00
14880;PMS7003;7533;51.278;12.588;2022-12-29T20:17:56;0.00;0.00;0.00
14880;PMS7003;7533;51.278;12.588;2022-12-29T20:23:15;0.00;0.00;0.00
14880;PMS7003;7533;51.278;12.588;2022-12-29T20:28:18;3.00;1.25;0.00
14880;PMS7003;7533;51.278;12.588;2022-12-29T20:33:22;2.00;1.00;0.00
14880;PMS7003;7533;51.278;12.588;2022-12-29T20:38:25;1.25;0.50;0.00
14880;PMS7003;7533;51.278;12.588;2022-12-29T20:43:28;1.25;0.75;0.00
14880;PMS7003;7533;51.278;12.588;2022-12-29T20:48:32;0.25;0.25;0.00
14880;PMS7003;7533;51.278;12.588;2022-12-29T20:53:35;0.50;0.50;0.00
14880;PMS7003;7533;51.278;12.588;2022-12-29T20:58:40;0.25;0.25;0.00
14880;PMS7003;7533;51.278;12.588;2022-12-29T21:04:04;0.00;0.00;0.00
14880;PMS7003;7533;51.278;12.588;2022-12-29T21:09:07;1.00;1.00;0.00
14880;PMS7003;7533;51.278;12.588;2022-12-29T21:14:10;0.00;0.00;0.00
14880;PMS7003;7533;51.278;12.588;2022-12-29T21:19:14;0.50;0.50;0.00
14880;PMS7003;7533;51.278;12.588;2022-12-29T21:24:17;0.00;0.00;0.00
14880;PMS7003;7533;51.278;12.588;2022-12-29T21:29:20;0.25;0.25;0.00
14880;PMS7003;7533;51.278;12.588;2022-12-29T21:34:24;1.00;0.00;0.00
14880;PMS7003;7533;51.278;12.588;2022-12-29T21:39:27;0.25;0.25;0.00
14880;PMS7003;7533;51.278;12.588;2022-12-29T21:44:30;1.50;0.00;0.00
14880;PMS7003;7533;51.278;12.588;2022-12-29T21:49:52;0.75;0.75;0.00
14880;PMS7003;7533;51.278;12.588;2022-12-29T21:54:55;0.00;0.00;0.00
14880;PMS7003;7533;51.278;12.588;2022-12-29T22:00:02;1.00;1.00;0.00
14880;PMS7003;7533;51.278;12.588;2022-12-29T22:05:25;2.00;0.00;0.00
14880;PMS7003;7533;51.278;12.588;2022-12-29T22:10:46;0.00;0.00;0.00
14880;PMS7003;7533;51.278;12.588;2022-12-29T22:16:07;0.50;0.50;0.00
14880;PMS7003;7533;51.278;12.588;2022-12-29T22:21:15;2.00;2.00;0.00
14880;PMS7003;7533;51.278;12.588;2022-12-29T22:26:19;1.00;1.00;0.00
14880;PMS7003;7533;51.278;12.588;2022-12-29T22:31:23;0.00;0.00;0.00
14880;PMS7003;7533;51.278;12.588;2022-12-29T22:36:31;0.00;0.00;0.00
14880;PMS7003;7533;51.278;12.588;2022-12-29T22:41:35;0.00;0.00;0.00
14880;PMS7003;7533;51.278;12.588;2022-12-29T22:46:39;1.00;1.00;0.00
14880;PMS7003;7533;51.278;12.588;2022-12-29T22:51:43;1.25;1.25;0.00
14880;PMS7003;7533;51.278;12.588;2022-12-29T22:56:46;2.00;1.00;0.00
14880;PMS7003;7533;51.278;12.588;2022-12-29T23:01:49;0.50;0.50;0.00
14880;PMS7003;7533;51.278;12.588;2022-12-29T23:06:53;0.00;0.00;0.00
14880;PMS7003;7533;51.278;12.588;2022-12-29T23:11:56;0.00;0.00;0.00
14880;PMS7003;7533;51.278;12.588;2022-12-29T23:16:59;0.00;0.00;0.00
14880;PMS7003;7533;51.278;12.588;2022-12-29T23:22:04;0.00;0.00;0.00
14880;PMS7003;7533;51.278;12.588;2022-12-29T23:27:07;0.50;0.00;0.00
14880;PMS7003;7533;51.278;12.588;2022-12-29T23:32:10;0.00;0.00;0.00
14880;PMS7003;7533;51.278;12.588;2022-12-29T23:37:14;1.00;0.00;0.00
14880;PMS7003;7533;51.278;12.588;2022-12-29T23:42:17;0.25;0.25;0.00
14880;PMS7003;7533;51.278;12.588;2022-12-29T23:47:20;0.00;0.00;0.00
14880;PMS7003;7533;51.278;12.588;2022-12-29T23:52:24;1.00;0.00;0.00
14880;PMS7003;7533;51.278;12.588;2022-12-29T23:57:27;0.50;0.50;0.00
